Airfield :
LOGIN :

Register | Disclaimer

   EN    FR    IT 

 










Legend :    VFR   Marginal VFR   IFR   Intensive IFR   Very Intensive IFR
Visi :
Ceiling :
>= 8 km
>= 3000ft
5 to 8 km
1000 to 3000 ft
1500m to 5 km
500 to 1000 ft
800 to 1500m
200 to 500 ft
< 800m
< 200 ft
Symbols :   Thunderstorms  Fog  Heavy snow  Heavy precipitations  Wind > 20 kt
SIGMETs :     Misc.  Thunderstorms  Icing  Turbulence  Mountain Waves  Volcanic Ashes






- Airport Elevation : 1197 ft
- IATA code : SPM


ETAD - Spangdahlem Ab

CURRENT METAR :
  • 220956Z 09008KT 9999 CLR 09/M02 A3022 RMK AO2A SLP229 T00891018 $

EXPIRED METARs :
  • 220856Z 05008KT 9999 CLR 07/M02 A3022 RMK AO2A SLP231 T00681019 51012 $
  • 220756Z 06010KT 9999 CLR 05/M02 A3022 RMK AO2A SLP231 T00501019 $

TAF AMD TAF ETAD
Valid from the 22 at 05:00 until the 23 at 10:00 UTC


220520Z 2205/2310 04009KT 9999 SCT020 QNH3015INS
BECMG 2207/2208 03010G15KT 9999 SKC QNH3020INS
BECMG 2219/2220 03007KT 9999 FEW025 QNH3027INS TX13/2214Z TN01/2304Z



MET'MAP, your aeronautical weather chart ! - Copyright ORBIFLY December 2007 - Disclaimer

ORBIFLY MET'MAP TEAM :

Programming & Development : Alexandra Zaïnal
Concept & original design : Baudouin d'Aumeries
Assistance for programming : Marc-Olivier Méhu
Technical & hardware support : Manuel Goepfert

Contact : metmap@orbifly.com




SOURCES & CREDITS :

   NOAA